Time;durP1;ratioP1;P1;durP2;ratioP2;P2;SDS_P1;SDS_P2;PMS_P1;PMS_P2;Temp;Humidity;BMP_temperature;BMP_pressure;BME280_temperature;BME280_humidity;BME280_pressure;Samples;Min_cycle;Max_cycle;Signal;HPM_P1;HPM_P2
2022/10/02 00:00:47;;;;;;;13.15;9.90;;;;;21.00;100334.00;;;;2045613;28;20212;-63
2022/10/02 00:01:55;;;;;;;13.57;9.60;;;;;21.00;100306.00;;;;2053679;28;20214;-63
2022/10/02 00:03:17;;;;;;;12.40;9.60;;;;;21.00;100321.00;;;;2051545;28;20225;-63
2022/10/02 00:04:31;;;;;;;13.70;10.23;;;;;21.00;100334.00;;;;2051432;28;20223;-63
2022/10/02 00:05:35;;;;;;;13.05;9.85;;;;;20.40;100334.00;;;;2051700;28;20220;-62
2022/10/02 00:06:45;;;;;;;12.48;9.50;;;;;21.00;100335.00;;;;2051843;28;20216;-62
2022/10/02 00:07:58;;;;;;;12.30;9.40;;;;;21.00;100331.00;;;;2051769;28;20573;-63
2022/10/02 00:08:58;;;;;;;14.68;9.45;;;;;21.00;100341.00;;;;2045887;28;20220;-63
2022/10/02 00:10:00;;;;;;;11.97;9.53;;;;;21.00;100331.00;;;;2051568;28;20215;-63
2022/10/02 00:11:07;;;;;;;13.15;9.40;;;;;21.00;100321.00;;;;2051461;28;20297;-63
2022/10/02 00:12:09;;;;;;;12.10;8.20;;;;;21.00;100318.00;;;;2036410;29;20787;-63
2022/10/02 00:13:20;;;;;;;11.38;8.48;;;;;21.00;100299.00;;;;2043242;29;20215;-63
2022/10/02 00:14:21;;;;;;;12.68;9.55;;;;;21.00;100332.00;;;;2053296;28;20266;-63
2022/10/02 00:15:24;;;;;;;15.40;8.60;;;;;20.90;100334.00;;;;2050810;28;20773;-63
2022/10/02 00:16:33;;;;;;;12.75;8.35;;;;;20.90;100335.00;;;;2050638;28;20211;-63
2022/10/02 00:17:36;;;;;;;12.52;8.32;;;;;20.90;100334.00;;;;2051745;28;20593;-63
2022/10/02 00:18:37;;;;;;;13.50;8.77;;;;;20.90;100335.00;;;;2045883;28;20214;-63
2022/10/02 00:19:37;;;;;;;11.50;8.00;;;;;20.90;100331.00;;;;2050871;28;20211;-63
2022/10/02 00:21:02;;;;;;;16.87;8.30;;;;;20.90;100335.00;;;;2050629;28;20251;-63
2022/10/02 00:22:18;;;;;;;11.82;7.70;;;;;20.90;100330.00;;;;2051088;28;20227;-63
2022/10/02 00:23:23;;;;;;;12.70;7.90;;;;;20.90;100336.00;;;;2050750;28;20218;-63
2022/10/02 00:24:26;;;;;;;12.73;8.05;;;;;20.90;100336.00;;;;2045235;29;20696;-63
2022/10/02 00:25:58;;;;;;;11.02;7.82;;;;;20.90;100331.00;;;;2039487;28;20220;-63
2022/10/02 00:27:02;;;;;;;11.18;7.30;;;;;20.90;100334.00;;;;2039213;28;20220;-63
2022/10/02 00:28:10;;;;;;;12.02;7.50;;;;;20.90;100316.00;;;;2051675;28;20224;-63
2022/10/02 00:29:32;;;;;;;11.40;7.47;;;;;20.90;100334.00;;;;2053727;28;20683;-63
2022/10/02 00:30:36;;;;;;;11.20;7.05;;;;;20.90;100337.00;;;;2050679;28;20707;-63
2022/10/02 00:31:43;;;;;;;10.95;7.75;;;;;20.90;100341.00;;;;2051317;28;20215;-63
2022/10/02 00:33:04;;;;;;;9.05;6.93;;;;;20.80;100335.00;;;;2050635;28;20212;-63
2022/10/02 00:34:29;;;;;;;10.60;6.50;;;;;20.80;100309.00;;;;2043344;29;20224;-63
2022/10/02 00:35:54;;;;;;;9.68;6.88;;;;;20.80;100340.00;;;;2040907;28;20303;-63
2022/10/02 00:37:26;;;;;;;7.60;6.43;;;;;20.80;100344.00;;;;2048515;28;20222;-63
2022/10/02 00:38:42;;;;;;;12.23;7.47;;;;;20.80;100345.00;;;;2048818;28;20690;-63
2022/10/02 00:39:52;;;;;;;11.70;6.97;;;;;20.80;100348.00;;;;2052405;28;20263;-63
2022/10/02 00:41:26;;;;;;;10.77;6.50;;;;;20.30;100340.00;;;;2050303;28;20698;-64
2022/10/02 00:42:35;;;;;;;10.35;5.72;;;;;20.80;100345.00;;;;2050946;28;20223;-63
2022/10/02 00:43:45;;;;;;;9.45;6.10;;;;;20.80;100354.00;;;;2051369;28;20674;-63
2022/10/02 00:45:22;;;;;;;8.88;6.00;;;;;20.80;100342.00;;;;2050606;28;20243;-63
2022/10/02 00:46:46;;;;;;;10.35;6.07;;;;;20.80;100347.00;;;;2049597;28;20216;-64
2022/10/02 00:47:53;;;;;;;10.93;6.22;;;;;20.80;100353.00;;;;2052560;28;20279;-63
2022/10/02 00:49:13;;;;;;;7.93;5.80;;;;;20.80;100351.00;;;;2051065;28;20216;-63
2022/10/02 00:50:17;;;;;;;9.88;5.63;;;;;20.80;100350.00;;;;2050774;28;20310;-63
2022/10/02 00:51:30;;;;;;;10.07;5.57;;;;;20.80;100351.00;;;;2050252;28;20634;-62
2022/10/02 00:52:40;;;;;;;9.05;5.63;;;;;20.80;100358.00;;;;2053159;28;20215;-63
2022/10/02 00:53:53;;;;;;;10.02;5.85;;;;;20.80;100322.00;;;;2051399;28;20581;-63
2022/10/02 00:54:59;;;;;;;9.32;4.78;;;;;20.80;100343.00;;;;2044537;28;20231;-63
2022/10/02 00:56:11;;;;;;;10.13;5.20;;;;;20.80;100346.00;;;;2050744;28;20220;-63
2022/10/02 00:57:36;;;;;;;10.38;5.45;;;;;20.80;100345.00;;;;2052704;28;20218;-63
2022/10/02 00:58:51;;;;;;;9.95;5.65;;;;;20.80;100345.00;;;;2050588;28;20215;-63
2022/10/02 01:00:19;;;;;;;7.10;5.10;;;;;20.80;100342.00;;;;2050756;28;20250;-63
2022/10/02 01:01:25;;;;;;;8.57;5.50;;;;;20.80;100346.00;;;;2050713;28;20216;-63
2022/10/02 01:02:34;;;;;;;9.52;5.03;;;;;20.80;100340.00;;;;2042872;29;20221;-64
2022/10/02 01:03:43;;;;;;;12.30;5.75;;;;;20.80;100356.00;;;;2045095;28;20292;-63
2022/10/02 01:04:43;;;;;;;8.00;4.72;;;;;20.70;100344.00;;;;2051104;28;20307;-63
2022/10/02 01:05:43;;;;;;;9.57;4.93;;;;;20.70;100344.00;;;;2051103;28;20238;-63
2022/10/02 01:06:43;;;;;;;9.77;5.00;;;;;20.80;100345.00;;;;2051567;28;20228;-63
2022/10/02 01:07:45;;;;;;;9.47;5.30;;;;;20.70;100341.00;;;;2051266;28;20224;-63
2022/10/02 01:08:46;;;;;;;8.60;5.40;;;;;20.70;100353.00;;;;2046516;29;23211;-63
2022/10/02 01:09:46;;;;;;;8.70;4.90;;;;;20.70;100353.00;;;;2046538;28;20220;-63
2022/10/02 01:10:46;;;;;;;6.70;4.50;;;;;20.80;100350.00;;;;2050700;28;20258;-63
2022/10/02 01:11:47;;;;;;;6.77;4.60;;;;;20.80;100351.00;;;;2043475;29;20216;-63
2022/10/02 01:12:52;;;;;;;8.33;4.63;;;;;20.70;100349.00;;;;2050984;28;20270;-63
2022/10/02 01:13:52;;;;;;;9.32;4.65;;;;;20.80;100332.00;;;;2049665;28;20584;-62
2022/10/02 01:14:52;;;;;;;6.83;4.47;;;;;20.70;100365.00;;;;2050618;28;20282;-63
2022/10/02 01:15:54;;;;;;;7.93;4.73;;;;;20.70;100354.00;;;;2051307;28;20242;-63
2022/10/02 01:16:55;;;;;;;7.70;4.35;;;;;20.70;100361.00;;;;2050954;28;20576;-62
2022/10/02 01:17:55;;;;;;;8.60;4.90;;;;;20.70;100345.00;;;;2050971;28;20234;-63
2022/10/02 01:18:55;;;;;;;8.03;4.47;;;;;20.70;100351.00;;;;2050907;28;20243;-63
2022/10/02 01:19:56;;;;;;;10.20;4.70;;;;;20.70;100351.00;;;;2050992;28;20224;-63
2022/10/02 01:21:01;;;;;;;12.07;5.27;;;;;20.70;100350.00;;;;2051890;28;20715;-63
2022/10/02 01:22:08;;;;;;;7.28;4.00;;;;;20.70;100346.00;;;;2042464;29;20228;-63
2022/10/02 01:23:41;;;;;;;6.30;4.30;;;;;20.70;100347.00;;;;2033457;29;20261;-63
2022/10/02 01:24:58;;;;;;;6.80;4.22;;;;;20.70;100355.00;;;;2044406;28;20211;-63
2022/10/02 01:25:58;;;;;;;11.90;4.95;;;;;20.70;100351.00;;;;2052426;28;20250;-63
2022/10/02 01:26:58;;;;;;;7.30;4.47;;;;;20.70;100360.00;;;;2051413;28;20227;-63
2022/10/02 01:27:59;;;;;;;8.47;4.50;;;;;20.70;100358.00;;;;2050453;28;20231;-62
2022/10/02 01:28:59;;;;;;;7.80;4.13;;;;;20.70;100358.00;;;;2050400;28;20572;-64
2022/10/02 01:30:10;;;;;;;7.93;3.97;;;;;20.70;100366.00;;;;2051591;28;20247;-64
2022/10/02 01:31:13;;;;;;;8.00;4.07;;;;;20.70;100334.00;;;;2050980;28;20232;-62
2022/10/02 01:32:14;;;;;;;7.03;4.10;;;;;20.70;100356.00;;;;2043458;29;20209;-63
2022/10/02 01:33:14;;;;;;;8.17;5.10;;;;;20.70;100334.00;;;;2044006;28;20220;-63
2022/10/02 01:34:14;;;;;;;9.17;4.10;;;;;20.70;100358.00;;;;2051933;28;20914;-63
2022/10/02 01:35:15;;;;;;;7.67;4.33;;;;;20.70;100363.00;;;;2035396;29;20222;-63
2022/10/02 01:36:16;;;;;;;7.97;4.25;;;;;20.70;100361.00;;;;2043624;28;20217;-62
2022/10/02 01:37:16;;;;;;;6.03;3.27;;;;;20.70;100362.00;;;;2043509;29;20205;-63
2022/10/02 01:38:17;;;;;;;9.47;3.87;;;;;20.70;100359.00;;;;2051610;28;20727;-63
2022/10/02 01:39:18;;;;;;;7.57;3.95;;;;;20.70;100363.00;;;;2051154;28;20334;-63
2022/10/02 01:40:29;;;;;;;7.33;3.73;;;;;20.70;100373.00;;;;2051405;28;21057;-63
2022/10/02 01:41:38;;;;;;;9.20;3.97;;;;;20.70;100369.00;;;;2051441;28;20751;-63
2022/10/02 01:42:39;;;;;;;11.15;3.72;;;;;20.70;100369.00;;;;2051177;28;20208;-62
2022/10/02 01:43:42;;;;;;;9.13;4.03;;;;;20.60;100341.00;;;;2051688;28;20212;-63
2022/10/02 01:44:43;;;;;;;8.82;4.15;;;;;20.60;100372.00;;;;2051059;28;20326;-63
2022/10/02 01:45:55;;;;;;;6.87;3.90;;;;;20.60;100372.00;;;;2050738;28;20715;-63
2022/10/02 01:47:08;;;;;;;8.85;3.95;;;;;20.60;100364.00;;;;2050763;28;20228;-63
2022/10/02 01:48:16;;;;;;;9.60;3.80;;;;;20.60;100330.00;;;;2046815;29;20303;-62
2022/10/02 01:49:38;;;;;;;5.60;3.22;;;;;20.60;100350.00;;;;2036576;29;20224;-63
2022/10/02 01:51:12;;;;;;;5.28;3.15;;;;;20.60;100362.00;;;;2031961;29;20231;-63
2022/10/02 01:52:19;;;;;;;7.05;3.83;;;;;20.70;100371.00;;;;2038308;28;20208;-63
2022/10/02 01:53:25;;;;;;;7.28;3.30;;;;;20.60;100370.00;;;;2051258;28;20208;-63
2022/10/02 01:54:43;;;;;;;9.13;4.05;;;;;20.70;100367.00;;;;2050722;28;20215;-63
2022/10/02 01:56:05;;;;;;;8.50;3.40;;;;;20.60;100363.00;;;;2052669;28;20211;-63
2022/10/02 01:57:26;;;;;;;7.15;3.78;;;;;20.60;100359.00;;;;2052478;28;20733;-63
2022/10/02 01:58:36;;;;;;;8.43;3.72;;;;;20.60;100367.00;;;;2047434;28;20801;-63
2022/10/02 01:59:41;;;;;;;6.07;2.85;;;;;20.60;100369.00;;;;2049213;28;20734;-63
2022/10/02 02:01:02;;;;;;;7.93;3.40;;;;;20.60;100366.00;;;;2049540;28;20585;-63
2022/10/02 02:02:23;;;;;;;7.40;3.90;;;;;20.10;100366.00;;;;2050575;28;20246;-63
2022/10/02 02:03:34;;;;;;;9.82;3.75;;;;;20.60;100367.00;;;;2052703;28;20260;-63
2022/10/02 02:05:05;;;;;;;7.88;3.15;;;;;20.60;100361.00;;;;2050363;28;20216;-64
2022/10/02 02:06:14;;;;;;;7.38;2.75;;;;;20.60;100351.00;;;;2052388;28;20266;-63
2022/10/02 02:07:36;;;;;;;6.95;3.30;;;;;20.60;100369.00;;;;2050956;28;20560;-63
2022/10/02 02:08:45;;;;;;;6.47;3.33;;;;;20.60;100395.00;;;;2043646;28;20211;-63
2022/10/02 02:09:50;;;;;;;8.40;3.20;;;;;20.60;100365.00;;;;2050502;28;20252;-62
2022/10/02 02:11:07;;;;;;;6.40;3.10;;;;;20.60;100358.00;;;;2051174;28;20307;-63
2022/10/02 02:12:14;;;;;;;9.57;3.75;;;;;20.60;100362.00;;;;2044970;28;20219;-63
2022/10/02 02:13:30;;;;;;;10.15;3.58;;;;;20.60;100353.00;;;;2050756;28;20203;-63
2022/10/02 02:14:32;;;;;;;9.90;3.33;;;;;20.60;100371.00;;;;2051232;28;20620;-63
2022/10/02 02:15:45;;;;;;;8.52;3.25;;;;;20.60;100363.00;;;;2050415;28;20215;-63
2022/10/02 02:16:51;;;;;;;7.90;3.10;;;;;20.60;100358.00;;;;2046664;29;20212;-63
2022/10/02 02:17:56;;;;;;;6.22;3.17;;;;;20.60;100365.00;;;;2040536;28;20213;-62
2022/10/02 02:19:02;;;;;;;8.25;3.50;;;;;20.60;100354.00;;;;2046709;29;20252;-63
2022/10/02 02:20:12;;;;;;;6.93;3.20;;;;;20.60;100361.00;;;;2050482;28;20231;-63
2022/10/02 02:21:17;;;;;;;7.32;3.15;;;;;20.60;100354.00;;;;2051071;28;20211;-63
2022/10/02 02:22:28;;;;;;;7.47;2.85;;;;;20.60;100364.00;;;;2043386;28;20838;-63
2022/10/02 02:23:31;;;;;;;5.82;2.80;;;;;20.60;100335.00;;;;2043330;28;20755;-63
2022/10/02 02:24:42;;;;;;;7.03;3.05;;;;;20.60;100372.00;;;;2050385;28;20631;-63
2022/10/02 02:25:44;;;;;;;7.97;3.08;;;;;20.60;100347.00;;;;2050854;28;20216;-63
2022/10/02 02:26:45;;;;;;;6.53;2.67;;;;;20.60;100356.00;;;;2043362;28;20216;-63
2022/10/02 02:27:49;;;;;;;8.50;3.35;;;;;20.60;100342.00;;;;2045106;29;20242;-63
2022/10/02 02:28:52;;;;;;;7.65;2.95;;;;;20.60;100333.00;;;;2046202;29;20250;-63
2022/10/02 02:29:59;;;;;;;7.60;3.50;;;;;20.60;100378.00;;;;2037069;28;20225;-63
2022/10/02 02:30:59;;;;;;;4.95;2.67;;;;;20.60;100358.00;;;;2046874;29;20231;-63
2022/10/02 02:32:01;;;;;;;8.00;2.80;;;;;20.60;100361.00;;;;2054615;28;20227;-63
2022/10/02 02:33:04;;;;;;;7.40;3.13;;;;;20.60;100360.00;;;;2051074;28;20770;-63
2022/10/02 02:34:13;;;;;;;6.53;2.90;;;;;20.60;100334.00;;;;2051134;28;20223;-63
2022/10/02 02:35:25;;;;;;;5.32;2.70;;;;;20.50;100331.00;;;;2034132;29;20702;-63
2022/10/02 02:36:37;;;;;;;5.95;2.67;;;;;20.60;100361.00;;;;2050377;28;20315;-63
2022/10/02 02:37:38;;;;;;;8.05;3.50;;;;;20.60;100362.00;;;;2048354;28;20692;-63
2022/10/02 02:38:45;;;;;;;7.95;2.85;;;;;20.60;100370.00;;;;2036376;29;20221;-63
2022/10/02 02:40:08;;;;;;;7.55;3.20;;;;;20.60;100362.00;;;;2029810;29;20760;-63
2022/10/02 02:41:12;;;;;;;6.00;2.70;;;;;20.60;100360.00;;;;2035127;29;20227;-63
2022/10/02 02:42:13;;;;;;;8.10;3.05;;;;;20.60;100364.00;;;;2040546;28;20220;-63
2022/10/02 02:43:20;;;;;;;5.53;2.72;;;;;20.60;100363.00;;;;2036561;29;20586;-63
2022/10/02 02:44:23;;;;;;;10.52;3.20;;;;;20.50;100362.00;;;;2038441;28;20225;-63
2022/10/02 02:45:26;;;;;;;7.68;3.15;;;;;20.60;100341.00;;;;2048422;29;20219;-63
2022/10/02 02:47:02;;;;;;;5.43;3.17;;;;;20.50;100362.00;;;;2048405;29;20208;-63
2022/10/02 02:48:00;;;;;;;10.63;2.83;;;;;20.50;100358.00;;;;2041254;29;20266;-63
2022/10/02 02:49:07;;;;;;;5.97;2.90;;;;;20.50;100356.00;;;;2048494;28;20224;-63
2022/10/02 02:50:07;;;;;;;6.57;3.00;;;;;20.50;100353.00;;;;2049017;28;20232;-63
2022/10/02 02:51:16;;;;;;;8.50;2.43;;;;;20.50;100323.00;;;;2052885;28;20300;-63
2022/10/02 02:52:24;;;;;;;6.15;2.35;;;;;20.50;100353.00;;;;2052465;28;20211;-63
2022/10/02 02:53:39;;;;;;;7.93;2.60;;;;;20.60;100349.00;;;;2052597;28;20208;-63
2022/10/02 02:54:45;;;;;;;6.00;2.85;;;;;20.50;100337.00;;;;2042648;29;20212;-63
2022/10/02 02:55:51;;;;;;;9.20;2.90;;;;;20.50;100350.00;;;;2040849;29;20223;-63
2022/10/02 02:56:51;;;;;;;6.70;2.63;;;;;20.50;100347.00;;;;2044205;29;20212;-63
2022/10/02 02:57:58;;;;;;;6.60;3.20;;;;;20.50;100352.00;;;;2044127;29;20203;-63
2022/10/02 02:59:05;;;;;;;9.88;3.20;;;;;20.50;100325.00;;;;2052936;28;20212;-63
2022/10/02 03:00:06;;;;;;;6.55;2.90;;;;;20.50;100349.00;;;;2052648;28;20220;-63
2022/10/02 03:01:07;;;;;;;7.85;2.90;;;;;20.50;100349.00;;;;2044830;29;20295;-63
2022/10/02 03:02:07;;;;;;;7.97;3.27;;;;;20.50;100359.00;;;;2044702;28;20301;-63
2022/10/02 03:03:07;;;;;;;9.13;2.83;;;;;20.50;100316.00;;;;2053438;28;20243;-63
2022/10/02 03:04:10;;;;;;;7.77;2.90;;;;;20.50;100353.00;;;;2048122;29;20212;-63
2022/10/02 03:05:12;;;;;;;8.88;2.70;;;;;20.50;100356.00;;;;2040834;28;20626;-63
2022/10/02 03:06:16;;;;;;;8.20;2.85;;;;;20.50;100352.00;;;;2035937;29;20562;-64
2022/10/02 03:07:16;;;;;;;8.40;3.15;;;;;20.50;100349.00;;;;2033693;28;20225;-63
2022/10/02 03:08:30;;;;;;;7.73;2.90;;;;;20.50;100360.00;;;;2048068;29;20222;-63
2022/10/02 03:09:32;;;;;;;10.07;2.70;;;;;20.50;100345.00;;;;2054407;28;20217;-63
2022/10/02 03:10:44;;;;;;;8.95;3.25;;;;;20.50;100364.00;;;;2052006;28;20215;-63
2022/10/02 03:12:03;;;;;;;11.52;3.08;;;;;20.50;100359.00;;;;2040052;29;20213;-63
2022/10/02 03:13:27;;;;;;;7.05;2.70;;;;;20.50;100358.00;;;;2046654;28;20216;-63
2022/10/02 03:14:47;;;;;;;5.57;2.60;;;;;20.50;100361.00;;;;2046925;28;20218;-63
2022/10/02 03:16:00;;;;;;;6.82;2.78;;;;;20.50;100362.00;;;;2046327;28;20262;-63
2022/10/02 03:17:08;;;;;;;7.60;2.72;;;;;20.50;100354.00;;;;2046659;29;20236;-62
2022/10/02 03:18:19;;;;;;;5.00;2.42;;;;;20.50;100355.00;;;;2049024;28;20233;-63
2022/10/02 03:19:32;;;;;;;9.50;2.97;;;;;20.50;100355.00;;;;2045284;29;20300;-63
2022/10/02 03:20:48;;;;;;;7.60;2.92;;;;;20.50;100363.00;;;;2032712;29;20329;-63
2022/10/02 03:21:57;;;;;;;7.25;2.67;;;;;20.50;100356.00;;;;2041492;29;20322;-63
2022/10/02 03:23:06;;;;;;;9.60;2.90;;;;;20.50;100361.00;;;;2040087;29;20304;-63
2022/10/02 03:24:06;;;;;;;6.18;2.55;;;;;20.50;100365.00;;;;2045001;28;20212;-63
2022/10/02 03:25:14;;;;;;;10.20;3.10;;;;;20.50;100358.00;;;;2051986;28;20219;-64
2022/10/02 03:26:40;;;;;;;10.00;2.75;;;;;20.50;100355.00;;;;2051800;28;20222;-63
2022/10/02 03:27:47;;;;;;;6.57;3.00;;;;;20.50;100363.00;;;;2046368;28;20335;-63
2022/10/02 03:28:52;;;;;;;7.97;2.72;;;;;20.50;100361.00;;;;2044557;29;20212;-63
2022/10/02 03:30:01;;;;;;;8.48;3.08;;;;;20.50;100350.00;;;;2048205;28;20221;-63
2022/10/02 03:31:01;;;;;;;7.15;3.03;;;;;20.50;100363.00;;;;2052535;28;20266;-63
2022/10/02 03:32:02;;;;;;;5.67;2.43;;;;;20.50;100349.00;;;;2051276;28;20679;-64
2022/10/02 03:33:02;;;;;;;5.03;2.23;;;;;20.50;100321.00;;;;2051724;28;20770;-63
2022/10/02 03:34:03;;;;;;;6.70;2.43;;;;;20.50;100359.00;;;;2051766;28;20265;-63
2022/10/02 03:35:04;;;;;;;7.57;2.40;;;;;20.50;100310.00;;;;2044603;29;20999;-63
2022/10/02 03:36:04;;;;;;;5.22;2.40;;;;;20.50;100336.00;;;;2036657;28;20213;-63
2022/10/02 03:37:05;;;;;;;6.70;2.73;;;;;20.50;100358.00;;;;2040109;29;20653;-63
2022/10/02 03:38:06;;;;;;;5.77;2.30;;;;;20.50;100359.00;;;;2039874;29;20747;-63
2022/10/02 03:39:07;;;;;;;9.32;2.85;;;;;20.50;100358.00;;;;2036873;29;20216;-63
2022/10/02 03:40:07;;;;;;;7.10;2.50;;;;;20.50;100354.00;;;;2044495;28;20248;-63
2022/10/02 03:41:07;;;;;;;9.10;2.63;;;;;20.50;100356.00;;;;2044494;28;20224;-63
2022/10/02 03:42:10;;;;;;;6.50;2.90;;;;;20.50;100325.00;;;;2052766;28;20215;-63
2022/10/02 03:43:20;;;;;;;4.78;2.10;;;;;20.50;100358.00;;;;2051594;28;20711;-63
2022/10/02 03:44:21;;;;;;;10.88;3.35;;;;;20.50;100347.00;;;;2051266;28;20609;-64
2022/10/02 03:45:21;;;;;;;6.90;2.57;;;;;20.40;100352.00;;;;2052712;28;20211;-63
2022/10/02 03:46:21;;;;;;;6.67;2.70;;;;;20.50;100351.00;;;;2053094;28;20302;-63
2022/10/02 03:47:22;;;;;;;6.10;2.60;;;;;20.50;100344.00;;;;2053097;28;20253;-63
2022/10/02 03:48:22;;;;;;;8.50;2.87;;;;;20.50;100350.00;;;;2052232;28;20208;-63
2022/10/02 03:49:22;;;;;;;7.20;2.40;;;;;20.50;100357.00;;;;2052272;28;20216;-62
2022/10/02 03:50:23;;;;;;;7.70;2.90;;;;;20.50;100355.00;;;;2051530;28;20228;-63
2022/10/02 03:51:23;;;;;;;7.97;2.63;;;;;20.40;100353.00;;;;2051813;28;20231;-63
2022/10/02 03:52:23;;;;;;;4.73;2.07;;;;;20.40;100345.00;;;;2053876;28;20710;-63
2022/10/02 03:53:28;;;;;;;6.90;2.40;;;;;20.50;100350.00;;;;2048736;28;20587;-63
2022/10/02 03:54:30;;;;;;;8.77;2.60;;;;;20.40;100347.00;;;;2051666;28;20612;-63
2022/10/02 03:55:36;;;;;;;6.80;2.45;;;;;20.40;100352.00;;;;2048036;29;20371;-63
2022/10/02 03:56:44;;;;;;;9.73;2.80;;;;;20.40;100352.00;;;;2048476;28;20774;-63
2022/10/02 03:57:45;;;;;;;7.80;3.17;;;;;20.40;100346.00;;;;2045627;28;20213;-63
2022/10/02 03:58:46;;;;;;;8.23;2.70;;;;;20.40;100344.00;;;;2052329;28;20254;-63
2022/10/02 03:59:52;;;;;;;7.13;2.58;;;;;20.40;100341.00;;;;2052403;28;20220;-63
2022/10/02 04:01:01;;;;;;;7.45;3.00;;;;;20.40;100359.00;;;;2051371;28;20290;-63
2022/10/02 04:02:02;;;;;;;10.35;3.20;;;;;20.40;100339.00;;;;2051815;28;20546;-63
2022/10/02 04:03:09;;;;;;;8.40;2.70;;;;;20.40;100350.00;;;;2044188;29;20223;-63
2022/10/02 04:04:24;;;;;;;6.82;2.58;;;;;20.40;100353.00;;;;2045163;28;20958;-63
2022/10/02 04:05:57;;;;;;;9.70;2.80;;;;;20.40;100358.00;;;;2053434;28;20219;-63
2022/10/02 04:07:05;;;;;;;5.80;2.35;;;;;20.40;100358.00;;;;2048702;28;20328;-63
2022/10/02 04:08:14;;;;;;;7.10;2.65;;;;;20.40;100352.00;;;;2040898;29;20217;-63
2022/10/02 04:09:21;;;;;;;7.32;2.80;;;;;20.40;100348.00;;;;2034410;29;20217;-63
2022/10/02 04:10:29;;;;;;;5.43;2.30;;;;;20.50;100354.00;;;;2030852;29;20789;-63
2022/10/02 04:11:32;;;;;;;8.02;2.58;;;;;20.40;100346.00;;;;2037876;28;20224;-63
2022/10/02 04:12:35;;;;;;;7.97;2.50;;;;;20.40;100346.00;;;;2051416;28;20212;-63
2022/10/02 04:13:39;;;;;;;7.13;2.65;;;;;20.40;100350.00;;;;2043700;29;20767;-63
2022/10/02 04:14:52;;;;;;;8.13;2.70;;;;;20.40;100349.00;;;;2044508;28;20308;-63
2022/10/02 04:16:09;;;;;;;7.18;2.83;;;;;20.40;100353.00;;;;2045720;28;20212;-65
2022/10/02 04:17:24;;;;;;;6.25;2.78;;;;;20.40;100348.00;;;;2052447;28;20638;-63
2022/10/02 04:18:40;;;;;;;7.75;2.72;;;;;20.40;100347.00;;;;2047772;29;20293;-63
2022/10/02 04:19:45;;;;;;;7.47;2.80;;;;;20.40;100351.00;;;;2036386;29;20217;-63
2022/10/02 04:20:50;;;;;;;7.55;2.58;;;;;20.40;100324.00;;;;2044028;29;20216;-63
2022/10/02 04:22:04;;;;;;;7.40;2.20;;;;;20.40;100321.00;;;;2045592;28;20217;-63
2022/10/02 04:23:32;;;;;;;7.88;2.65;;;;;20.40;100356.00;;;;2051923;28;20227;-63
2022/10/02 04:24:35;;;;;;;7.10;2.63;;;;;20.40;100353.00;;;;2047933;28;20208;-63
2022/10/02 04:25:42;;;;;;;8.00;2.30;;;;;20.40;100332.00;;;;2044530;29;20224;-62
2022/10/02 04:27:11;;;;;;;7.43;2.47;;;;;20.40;100358.00;;;;2045406;28;20275;-63
2022/10/02 04:28:13;;;;;;;6.75;2.65;;;;;20.40;100355.00;;;;2046255;28;20251;-63
2022/10/02 04:29:25;;;;;;;6.55;2.05;;;;;20.40;100365.00;;;;2052211;28;20215;-63
2022/10/02 04:30:25;;;;;;;6.45;2.35;;;;;20.30;100363.00;;;;2052101;28;20220;-63
2022/10/02 04:31:27;;;;;;;6.37;2.47;;;;;20.40;100359.00;;;;2052345;28;20219;-63
2022/10/02 04:32:29;;;;;;;9.68;2.65;;;;;20.40;100365.00;;;;2051858;28;20238;-63
2022/10/02 04:33:31;;;;;;;8.40;2.47;;;;;20.40;100359.00;;;;2052232;28;20709;-63
2022/10/02 04:34:31;;;;;;;8.35;2.67;;;;;20.40;100359.00;;;;2052162;28;20227;-63
2022/10/02 04:35:35;;;;;;;7.67;2.90;;;;;20.40;100361.00;;;;2051791;28;20219;-63
2022/10/02 04:36:57;;;;;;;6.55;2.63;;;;;20.40;100341.00;;;;2051533;28;20650;-62
2022/10/02 04:38:10;;;;;;;8.73;2.65;;;;;20.40;100360.00;;;;2055587;28;20606;-63
2022/10/02 04:39:27;;;;;;;7.63;2.47;;;;;20.40;100355.00;;;;2049740;28;20758;-63
2022/10/02 04:40:49;;;;;;;6.60;2.58;;;;;20.40;100361.00;;;;2051026;28;20224;-63
2022/10/02 04:42:05;;;;;;;6.90;2.30;;;;;20.40;100367.00;;;;2051633;28;20282;-62
2022/10/02 04:43:37;;;;;;;7.70;3.10;;;;;20.40;100369.00;;;;2051812;28;20729;-62
2022/10/02 04:44:46;;;;;;;5.40;2.38;;;;;20.40;100377.00;;;;2053022;28;20719;-63
2022/10/02 04:45:55;;;;;;;6.85;2.20;;;;;20.40;100383.00;;;;2051634;28;20219;-63
2022/10/02 04:47:21;;;;;;;9.77;2.75;;;;;20.40;100388.00;;;;2051827;28;20595;-63
2022/10/02 04:48:39;;;;;;;7.15;2.25;;;;;20.40;100386.00;;;;2051259;28;20679;-63
2022/10/02 04:50:09;;;;;;;7.45;3.00;;;;;20.40;100379.00;;;;2052049;28;20212;-63
2022/10/02 04:51:32;;;;;;;8.48;2.78;;;;;20.40;100383.00;;;;2040895;28;20216;-63
2022/10/02 04:52:42;;;;;;;7.00;2.28;;;;;20.40;100389.00;;;;2050561;28;20270;-63
2022/10/02 04:54:06;;;;;;;7.22;2.30;;;;;20.40;100389.00;;;;2051112;28;20216;-64
2022/10/02 04:55:30;;;;;;;7.05;2.55;;;;;20.40;100399.00;;;;2050512;28;20220;-63
2022/10/02 04:56:45;;;;;;;6.43;2.60;;;;;20.40;100381.00;;;;2050814;28;20218;-63
2022/10/02 04:58:04;;;;;;;6.38;2.38;;;;;20.40;100376.00;;;;2050700;28;20578;-63
2022/10/02 04:59:12;;;;;;;5.82;2.40;;;;;20.40;100371.00;;;;2050620;28;20681;-63
2022/10/02 05:00:13;;;;;;;5.60;2.50;;;;;20.30;100334.00;;;;2051056;28;20286;-63
2022/10/02 05:01:37;;;;;;;7.15;2.25;;;;;20.30;100364.00;;;;2050907;28;20220;-63
2022/10/02 05:02:43;;;;;;;7.78;2.10;;;;;20.30;100381.00;;;;2052398;28;20218;-63
2022/10/02 05:03:53;;;;;;;5.95;1.67;;;;;20.40;100372.00;;;;2051893;28;20224;-63
2022/10/02 05:05:02;;;;;;;6.50;2.50;;;;;20.40;100361.00;;;;2043475;29;20251;-63
2022/10/02 05:06:21;;;;;;;6.82;2.30;;;;;20.40;100370.00;;;;2037489;29;20681;-63
2022/10/02 05:07:29;;;;;;;5.88;2.20;;;;;20.30;100353.00;;;;2051949;28;20223;-63
2022/10/02 05:08:56;;;;;;;4.80;2.22;;;;;20.30;100374.00;;;;2050854;28;20270;-64
2022/10/02 05:10:00;;;;;;;4.43;1.75;;;;;20.30;100379.00;;;;2051550;28;20236;-63
2022/10/02 05:11:26;;;;;;;4.82;1.98;;;;;20.30;100362.00;;;;2050662;28;20223;-64
2022/10/02 05:13:10;;;;;;;5.75;2.38;;;;;20.30;100385.00;;;;2050765;28;20591;-63
2022/10/02 05:14:19;;;;;;;7.78;2.17;;;;;20.30;100381.00;;;;2035801;29;20224;-63
2022/10/02 05:15:19;;;;;;;5.60;1.83;;;;;20.30;100388.00;;;;2034542;29;20222;-63
2022/10/02 05:16:26;;;;;;;5.07;2.50;;;;;20.30;100388.00;;;;2041278;28;20220;-63
2022/10/02 05:17:56;;;;;;;5.50;2.10;;;;;20.30;100392.00;;;;2052539;28;20312;-63
2022/10/02 05:19:06;;;;;;;6.47;1.83;;;;;20.30;100383.00;;;;2055159;28;20227;-63
2022/10/02 05:20:54;;;;;;;7.10;2.00;;;;;20.30;100374.00;;;;2050550;28;20319;-63
2022/10/02 05:22:32;;;;;;;6.20;2.05;;;;;20.30;100396.00;;;;2035870;29;20243;-63
2022/10/02 05:23:44;;;;;;;6.07;2.60;;;;;20.30;100390.00;;;;2051331;28;20235;-64
2022/10/02 05:25:22;;;;;;;3.85;1.77;;;;;20.30;100391.00;;;;2052011;28;20571;-63
2022/10/02 05:26:30;;;;;;;3.63;1.77;;;;;20.30;100386.00;;;;2053227;28;20231;-62
2022/10/02 05:27:56;;;;;;;5.13;2.08;;;;;20.30;100396.00;;;;2051574;28;20294;-63
2022/10/02 05:29:21;;;;;;;6.22;2.35;;;;;20.30;100384.00;;;;2047148;28;20342;-63
2022/10/02 05:30:21;;;;;;;5.88;1.90;;;;;20.30;100393.00;;;;2051314;28;20628;-63
2022/10/02 05:31:51;;;;;;;6.13;2.40;;;;;20.30;100399.00;;;;2051393;28;20219;-63
2022/10/02 05:33:02;;;;;;;5.57;2.10;;;;;20.30;100390.00;;;;2053660;28;20208;-63
2022/10/02 05:34:15;;;;;;;3.72;2.00;;;;;20.30;100395.00;;;;2051604;28;20243;-63
2022/10/02 05:35:35;;;;;;;3.38;1.70;;;;;20.30;100378.00;;;;2031084;29;20920;-62
2022/10/02 05:36:54;;;;;;;3.78;1.80;;;;;20.30;100405.00;;;;2044307;28;20219;-63
2022/10/02 05:38:04;;;;;;;4.40;2.30;;;;;20.30;100386.00;;;;2051281;28;20224;-63
2022/10/02 05:39:14;;;;;;;4.55;2.10;;;;;20.30;100361.00;;;;2050756;28;20675;-63
2022/10/02 05:40:23;;;;;;;3.30;1.58;;;;;20.20;100394.00;;;;2053485;28;21073;-62
2022/10/02 05:41:27;;;;;;;5.13;2.03;;;;;20.30;100402.00;;;;2050004;28;20215;-63
2022/10/02 05:42:34;;;;;;;6.47;2.42;;;;;20.30;100403.00;;;;2046969;28;20693;-63
2022/10/02 05:43:38;;;;;;;5.13;1.92;;;;;20.30;100405.00;;;;2047774;28;20228;-64